createdAt,value
2023-01-10T00:00:10.393Z,5.4
2023-01-10T00:03:10.444Z,5.4
2023-01-10T00:06:10.124Z,5.4
2023-01-10T00:09:10.097Z,5.4
2023-01-10T00:12:10.125Z,5.4
2023-01-10T00:15:10.229Z,5.3
2023-01-10T00:18:10.105Z,5.2
2023-01-10T00:21:10.197Z,5.2
2023-01-10T00:24:10.397Z,5.2
2023-01-10T00:27:10.156Z,5.2
2023-01-10T00:30:10.225Z,5.2
2023-01-10T00:33:10.163Z,5.2
2023-01-10T00:36:10.151Z,5.2
2023-01-10T00:39:10.164Z,5.3
2023-01-10T00:42:10.207Z,5.4
2023-01-10T00:45:10.118Z,5.4
2023-01-10T00:48:10.125Z,5.4
2023-01-10T00:51:10.395Z,5.4
2023-01-10T00:54:10.169Z,5.4
2023-01-10T00:57:10.206Z,5.4
2023-01-10T01:00:10.325Z,5.4
2023-01-10T01:03:10.500Z,5.4
2023-01-10T01:06:10.089Z,5.4
2023-01-10T01:09:10.113Z,5.4
2023-01-10T01:12:10.119Z,5.5
2023-01-10T01:15:10.095Z,5.5
2023-01-10T01:18:10.143Z,5.6
2023-01-10T01:21:10.182Z,5.5
2023-01-10T01:24:10.108Z,5.5
2023-01-10T01:27:10.175Z,5.5
2023-01-10T01:30:10.160Z,5.4
2023-01-10T01:33:10.994Z,5.5
2023-01-10T01:36:10.299Z,5.5
2023-01-10T01:39:10.029Z,5.5
2023-01-10T01:42:10.116Z,5.5
2023-01-10T01:45:10.165Z,5.5
2023-01-10T01:48:10.027Z,5.5
2023-01-10T01:51:10.227Z,5.5
2023-01-10T01:54:10.133Z,5.5
2023-01-10T01:57:10.160Z,5.6
2023-01-10T02:00:10.142Z,5.6
2023-01-10T02:03:12.683Z,5.6
2023-01-10T02:06:10.187Z,5.6
2023-01-10T02:09:10.097Z,5.6
2023-01-10T02:12:10.050Z,5.6
2023-01-10T02:15:10.117Z,5.6
2023-01-10T02:18:10.127Z,5.6
2023-01-10T02:21:10.101Z,5.6
2023-01-10T02:24:10.082Z,5.6
2023-01-10T02:27:10.094Z,5.7
2023-01-10T02:30:10.165Z,5.7
2023-01-10T02:33:14.682Z,5.7
2023-01-10T02:36:10.101Z,5.7
2023-01-10T02:39:10.397Z,5.7
2023-01-10T02:42:10.113Z,5.6
2023-01-10T02:45:10.124Z,5.6
2023-01-10T02:48:10.180Z,5.6
2023-01-10T02:51:10.128Z,5.7
2023-01-10T02:54:10.104Z,5.7
2023-01-10T02:57:10.022Z,5.7
2023-01-10T03:00:10.206Z,5.7
2023-01-10T03:03:10.100Z,5.7
2023-01-10T03:06:10.097Z,5.7
2023-01-10T03:09:10.070Z,5.7
2023-01-10T03:12:10.355Z,5.7
2023-01-10T03:15:10.223Z,5.7
2023-01-10T03:18:10.205Z,5.7
2023-01-10T03:21:10.097Z,5.7
2023-01-10T03:24:10.170Z,5.7
2023-01-10T03:27:10.166Z,5.7
2023-01-10T03:30:10.199Z,5.7
2023-01-10T03:33:10.169Z,5.7
2023-01-10T03:36:10.165Z,5.6
2023-01-10T03:39:10.091Z,5.7
2023-01-10T03:42:10.057Z,5.6
2023-01-10T03:45:10.179Z,5.5
2023-01-10T03:48:10.164Z,5.4
2023-01-10T03:51:10.129Z,5.4
2023-01-10T03:54:10.185Z,5.4
2023-01-10T03:57:11.862Z,5.3
2023-01-10T04:00:10.171Z,5.3
2023-01-10T04:03:10.149Z,5.3
2023-01-10T04:06:10.128Z,5.3
2023-01-10T04:09:10.086Z,5.3
2023-01-10T04:12:10.146Z,5.3
2023-01-10T04:15:10.115Z,5.3
2023-01-10T04:18:10.240Z,5.3
2023-01-10T04:21:10.109Z,5.2
2023-01-10T04:24:10.183Z,5.2
2023-01-10T04:27:10.350Z,5.2
2023-01-10T04:30:10.258Z,5.2
2023-01-10T04:33:10.064Z,5.2
2023-01-10T04:36:10.291Z,5.2
2023-01-10T04:39:10.134Z,5.2
2023-01-10T04:42:10.078Z,5.2
2023-01-10T04:45:10.198Z,5.1
2023-01-10T04:48:10.346Z,5.1
2023-01-10T04:51:10.179Z,5.1
2023-01-10T04:54:10.071Z,5.1
2023-01-10T04:57:10.136Z,5.1
2023-01-10T05:00:10.164Z,5.1
2023-01-10T05:03:11.245Z,5
2023-01-10T05:06:10.066Z,4.9
2023-01-10T05:09:10.148Z,4.9
2023-01-10T05:12:10.075Z,4.9
2023-01-10T05:15:10.221Z,5
2023-01-10T05:18:10.116Z,5.1
2023-01-10T05:21:10.088Z,5.1
2023-01-10T05:24:10.183Z,5.1
2023-01-10T05:27:10.097Z,5.2
2023-01-10T05:30:10.126Z,5.2
2023-01-10T05:33:10.202Z,5.2
2023-01-10T05:36:10.103Z,5.2
2023-01-10T05:39:10.074Z,5.3
2023-01-10T05:42:10.166Z,5.2
2023-01-10T05:45:10.207Z,5.2
2023-01-10T05:48:10.126Z,5.2
2023-01-10T05:51:10.183Z,5.1
2023-01-10T05:54:10.185Z,4.9
2023-01-10T05:57:10.364Z,4.8
2023-01-10T06:00:12.481Z,4.7
2023-01-10T06:03:10.589Z,4.6
2023-01-10T06:06:10.219Z,4.7
2023-01-10T06:09:10.079Z,4.8
2023-01-10T06:12:10.201Z,4.9
2023-01-10T06:15:10.103Z,5
2023-01-10T06:18:12.455Z,4.9
2023-01-10T06:21:10.133Z,4.9
2023-01-10T06:24:10.170Z,4.9
2023-01-10T06:27:10.038Z,4.8
2023-01-10T06:30:10.254Z,4.7
2023-01-10T06:33:10.140Z,4.6
2023-01-10T06:36:10.170Z,4.6
2023-01-10T06:39:10.044Z,4.6
2023-01-10T06:42:10.085Z,4.6
2023-01-10T06:45:10.093Z,4.6
2023-01-10T06:48:10.193Z,4.6
2023-01-10T06:51:10.106Z,4.5
2023-01-10T06:54:10.358Z,4.6
2023-01-10T06:57:10.117Z,4.6
2023-01-10T07:00:10.295Z,4.7
2023-01-10T07:03:10.189Z,4.7
2023-01-10T07:06:10.101Z,4.7
2023-01-10T07:09:10.141Z,4.7
2023-01-10T07:12:10.130Z,4.6
2023-01-10T07:15:10.293Z,4.6
2023-01-10T07:18:12.630Z,4.6
2023-01-10T07:21:10.135Z,4.6
2023-01-10T07:24:11.978Z,4.6
2023-01-10T07:27:10.154Z,4.6
2023-01-10T07:30:10.374Z,4.6
2023-01-10T07:33:10.224Z,4.7
2023-01-10T07:36:10.330Z,4.6
2023-01-10T07:39:10.189Z,4.6
2023-01-10T07:42:10.291Z,4.5
2023-01-10T07:45:10.247Z,4.6
2023-01-10T07:48:10.456Z,4.6
2023-01-10T07:51:11.988Z,4.7
2023-01-10T07:54:10.177Z,4.7
2023-01-10T07:57:10.105Z,4.7
2023-01-10T08:00:10.318Z,4.8
2023-01-10T08:03:11.387Z,4.9
2023-01-10T08:06:10.237Z,4.9
2023-01-10T08:09:10.323Z,5
2023-01-10T08:12:10.188Z,5.1
2023-01-10T08:15:10.291Z,5.1
2023-01-10T08:18:13.625Z,5.1
2023-01-10T08:21:10.141Z,5.2
2023-01-10T08:24:10.128Z,5.3
2023-01-10T08:27:10.185Z,5.3
2023-01-10T08:30:10.233Z,5.4
2023-01-10T08:33:10.277Z,5.4
2023-01-10T08:36:10.184Z,5.5
2023-01-10T08:39:10.211Z,5.5
2023-01-10T08:42:10.243Z,5.6
2023-01-10T08:45:10.134Z,5.4
2023-01-10T08:48:10.282Z,5.5
2023-01-10T08:51:10.172Z,5.4
2023-01-10T08:54:10.323Z,5.4
2023-01-10T08:57:10.462Z,5.4
2023-01-10T09:00:10.238Z,5.5
2023-01-10T09:03:10.644Z,5.6
2023-01-10T09:06:10.227Z,5.8
2023-01-10T09:09:10.189Z,6.1
2023-01-10T09:12:10.398Z,6.1
2023-01-10T09:15:10.402Z,6.2
2023-01-10T09:18:10.252Z,6.2
2023-01-10T09:21:10.378Z,6.2
2023-01-10T09:24:10.195Z,6.3
2023-01-10T09:27:10.118Z,6.3
2023-01-10T09:30:10.221Z,6.2
2023-01-10T09:33:10.204Z,6.1
2023-01-10T09:36:12.392Z,6.1
2023-01-10T09:39:10.166Z,6.2
2023-01-10T09:42:10.175Z,6.4
2023-01-10T09:45:10.210Z,6.6
2023-01-10T09:48:10.366Z,6.8
2023-01-10T09:51:10.179Z,7.1
2023-01-10T09:54:21.732Z,7.3
2023-01-10T09:57:10.257Z,7.3
2023-01-10T10:00:10.203Z,7.2
2023-01-10T10:03:10.546Z,7.4
2023-01-10T10:06:21.468Z,7.9
2023-01-10T10:09:13.812Z,8.8
2023-01-10T10:12:10.221Z,8.9
2023-01-10T10:15:10.293Z,8.4
2023-01-10T10:18:10.191Z,7.9
2023-01-10T10:21:10.369Z,7.6
2023-01-10T10:24:10.226Z,7.3
2023-01-10T10:27:10.254Z,7.2
2023-01-10T10:30:10.222Z,7.1
2023-01-10T10:33:10.113Z,7
2023-01-10T10:36:10.208Z,6.9
2023-01-10T10:39:11.693Z,6.9
2023-01-10T10:42:10.307Z,6.9
2023-01-10T10:45:10.164Z,7
2023-01-10T10:48:10.221Z,7.1
2023-01-10T10:51:10.198Z,7.1
2023-01-10T10:54:10.395Z,7.2
2023-01-10T10:57:10.207Z,7.2
2023-01-10T11:00:10.368Z,7.2
2023-01-10T11:03:10.224Z,7.3
2023-01-10T11:06:10.105Z,7.3
2023-01-10T11:09:10.214Z,7.3
2023-01-10T11:12:10.180Z,7.3
2023-01-10T11:15:10.174Z,7.3
2023-01-10T11:18:10.234Z,7.2
2023-01-10T11:21:10.143Z,7.2
2023-01-10T11:24:10.237Z,7.3
2023-01-10T11:27:10.334Z,7.4
2023-01-10T11:30:10.377Z,7.4
2023-01-10T11:33:10.277Z,7.4
2023-01-10T11:36:10.230Z,7.6
2023-01-10T11:39:10.182Z,8.4
2023-01-10T11:42:10.197Z,9.3
2023-01-10T11:45:10.151Z,9.2
2023-01-10T11:48:10.302Z,8.8
2023-01-10T11:51:10.120Z,8.1
2023-01-10T11:54:10.274Z,7.7
2023-01-10T11:57:10.190Z,7.6
2023-01-10T12:00:10.515Z,7.5
2023-01-10T12:03:10.337Z,7.5
2023-01-10T12:06:10.192Z,7.6
2023-01-10T12:09:10.244Z,7.6
2023-01-10T12:12:10.231Z,7.5
2023-01-10T12:15:10.149Z,7.5
2023-01-10T12:18:10.425Z,7.6
2023-01-10T12:21:10.207Z,7.7
2023-01-10T12:24:10.164Z,7.7
2023-01-10T12:27:10.263Z,7.9
2023-01-10T12:30:10.437Z,8
2023-01-10T12:33:10.384Z,8.2
2023-01-10T12:36:10.243Z,8.2
2023-01-10T12:39:12.801Z,8.1
2023-01-10T12:42:10.339Z,7.8
2023-01-10T12:45:10.184Z,7.6
2023-01-10T12:48:10.215Z,7.4
2023-01-10T12:51:10.257Z,7.2
2023-01-10T12:54:10.875Z,7.1
2023-01-10T12:57:10.175Z,7
2023-01-10T13:00:10.748Z,7
2023-01-10T13:03:10.566Z,7.1
2023-01-10T13:06:10.308Z,7.3
2023-01-10T13:09:10.180Z,7.6
2023-01-10T13:12:10.242Z,8.1
2023-01-10T13:15:10.281Z,8.4
2023-01-10T13:18:10.211Z,8.5
2023-01-10T13:21:10.131Z,8.6
2023-01-10T13:24:10.185Z,8.6
2023-01-10T13:27:10.158Z,8.6
2023-01-10T13:30:10.539Z,8.3
2023-01-10T13:33:10.367Z,8.1
2023-01-10T13:36:10.242Z,8
2023-01-10T13:39:10.195Z,7.9
2023-01-10T13:42:10.310Z,7.9
2023-01-10T13:45:10.327Z,7.8
2023-01-10T13:48:10.257Z,7.7
2023-01-10T13:51:10.109Z,7.6
2023-01-10T13:54:10.269Z,7.6
2023-01-10T13:57:10.353Z,7.6
2023-01-10T14:00:10.456Z,7.5
2023-01-10T14:03:10.116Z,7.4
2023-01-10T14:06:10.199Z,7.3
2023-01-10T14:09:10.204Z,7.3
2023-01-10T14:12:10.221Z,7.2
2023-01-10T14:15:10.204Z,7.1
2023-01-10T14:18:10.256Z,6.9
2023-01-10T14:21:10.280Z,6.8
2023-01-10T14:24:10.217Z,6.6
2023-01-10T14:27:10.194Z,6.6
2023-01-10T14:30:10.595Z,6.4
2023-01-10T14:33:10.178Z,6.4
2023-01-10T14:36:10.606Z,6.4
2023-01-10T14:39:10.201Z,6.3
2023-01-10T14:42:10.241Z,6.4
2023-01-10T14:45:10.330Z,6.3
2023-01-10T14:48:10.289Z,6.2
2023-01-10T14:51:10.233Z,6.2
2023-01-10T14:54:10.314Z,6.2
2023-01-10T14:57:10.195Z,6.3
2023-01-10T15:00:10.482Z,6.4
2023-01-10T15:03:10.049Z,6.4
2023-01-10T15:06:10.246Z,6.3
2023-01-10T15:09:10.453Z,6.3
2023-01-10T15:12:10.598Z,6.3
2023-01-10T15:15:10.356Z,6.3
2023-01-10T15:18:10.334Z,6.2
2023-01-10T15:21:10.220Z,6.2
2023-01-10T15:24:10.220Z,6.1
2023-01-10T15:27:10.336Z,6.1
2023-01-10T15:30:10.361Z,6.1
2023-01-10T15:33:10.105Z,6.1
2023-01-10T15:36:10.102Z,6
2023-01-10T15:39:10.275Z,6
2023-01-10T15:42:10.120Z,5.9
2023-01-10T15:45:10.222Z,6
2023-01-10T15:48:10.280Z,6
2023-01-10T15:51:10.393Z,5.9
2023-01-10T15:54:10.829Z,5.8
2023-01-10T15:57:10.209Z,5.7
2023-01-10T16:00:10.570Z,5.6
2023-01-10T16:03:11.062Z,5.6
2023-01-10T16:06:10.356Z,5.5
2023-01-10T16:09:10.081Z,5.5
2023-01-10T16:12:10.198Z,5.5
2023-01-10T16:15:10.185Z,5.4
2023-01-10T16:18:10.205Z,5.4
2023-01-10T16:21:10.132Z,5.4
2023-01-10T16:24:12.964Z,5.3
2023-01-10T16:27:10.138Z,5.3
2023-01-10T16:30:10.523Z,5.2
2023-01-10T16:33:10.165Z,5.3
2023-01-10T16:36:10.139Z,5.4
2023-01-10T16:39:10.091Z,5.4
2023-01-10T16:42:10.136Z,5.4
2023-01-10T16:45:10.443Z,5.3
2023-01-10T16:48:10.137Z,5.4
2023-01-10T16:51:10.157Z,5.3
2023-01-10T16:54:10.155Z,5.3
2023-01-10T16:57:12.213Z,5.2
2023-01-10T17:00:10.118Z,5.2
2023-01-10T17:03:10.116Z,5.2
2023-01-10T17:06:10.140Z,5.2
2023-01-10T17:09:10.052Z,5.1
2023-01-10T17:12:10.035Z,5.1
2023-01-10T17:15:10.157Z,5.1
2023-01-10T17:18:10.125Z,5.1
2023-01-10T17:21:10.126Z,5.2
2023-01-10T17:24:11.827Z,5.2
2023-01-10T17:27:10.086Z,5.2
2023-01-10T17:30:10.248Z,5.2
2023-01-10T17:33:10.122Z,5.3
2023-01-10T17:36:10.075Z,5.3
2023-01-10T17:39:10.106Z,5.2
2023-01-10T17:42:10.057Z,5.2
2023-01-10T17:45:10.427Z,5.2
2023-01-10T17:48:10.048Z,5.2
2023-01-10T17:51:10.190Z,5.3
2023-01-10T17:54:10.275Z,5.3
2023-01-10T17:57:10.075Z,5.4
2023-01-10T18:00:10.221Z,5.4
2023-01-10T18:03:10.585Z,5.3
2023-01-10T18:06:27.960Z,5.3
2023-01-10T18:09:10.053Z,5.3
2023-01-10T18:12:10.130Z,5.4
2023-01-10T18:15:10.130Z,5.4
2023-01-10T18:18:10.119Z,5.4
2023-01-10T18:21:10.176Z,5.4
2023-01-10T18:24:10.166Z,5.4
2023-01-10T18:27:10.069Z,5.4
2023-01-10T18:30:10.140Z,5.4
2023-01-10T18:33:10.076Z,5.4
2023-01-10T18:36:10.178Z,5.6
2023-01-10T18:39:10.133Z,5.6
2023-01-10T18:42:10.104Z,5.7
2023-01-10T18:45:10.298Z,5.7
2023-01-10T18:48:10.098Z,5.6
2023-01-10T18:51:10.142Z,5.6
2023-01-10T18:54:10.330Z,5.6
2023-01-10T18:57:10.188Z,5.7
2023-01-10T19:00:10.215Z,5.7
2023-01-10T19:03:10.104Z,5.7
2023-01-10T19:06:10.524Z,5.7
2023-01-10T19:09:10.400Z,5.7
2023-01-10T19:12:10.218Z,5.7
2023-01-10T19:15:10.336Z,5.7
2023-01-10T19:18:10.134Z,5.7
2023-01-10T19:21:10.174Z,5.7
2023-01-10T19:24:10.596Z,5.8
2023-01-10T19:27:10.119Z,5.8
2023-01-10T19:30:10.200Z,5.8
2023-01-10T19:33:10.110Z,5.8
2023-01-10T19:36:10.220Z,5.8
2023-01-10T19:39:10.222Z,5.9
2023-01-10T19:42:10.225Z,5.9
2023-01-10T19:45:10.137Z,5.9
2023-01-10T19:48:10.095Z,5.8
2023-01-10T19:51:10.113Z,5.8
2023-01-10T19:54:10.114Z,5.9
2023-01-10T19:57:10.174Z,5.9
2023-01-10T20:00:10.275Z,5.9
2023-01-10T20:03:10.558Z,6
2023-01-10T20:06:10.100Z,6
2023-01-10T20:09:10.341Z,5.9
2023-01-10T20:12:10.132Z,5.9
2023-01-10T20:15:10.240Z,6
2023-01-10T20:18:10.190Z,6
2023-01-10T20:21:10.094Z,6.1
2023-01-10T20:24:10.063Z,6.1
2023-01-10T20:27:10.030Z,6.1
2023-01-10T20:30:10.058Z,6.1
2023-01-10T20:33:10.096Z,6.1
2023-01-10T20:36:10.063Z,6.1
2023-01-10T20:39:10.347Z,6.1
2023-01-10T20:42:10.142Z,6.1
2023-01-10T20:45:10.148Z,6.1
2023-01-10T20:48:10.201Z,6.1
2023-01-10T20:51:10.065Z,5.9
2023-01-10T20:54:10.386Z,5.8
2023-01-10T20:57:10.194Z,5.6
2023-01-10T21:00:10.438Z,5.4
2023-01-10T21:03:10.610Z,5.3
2023-01-10T21:06:10.110Z,5.2
2023-01-10T21:09:10.358Z,5.1
2023-01-10T21:12:34.194Z,5
2023-01-10T21:15:10.164Z,5
2023-01-10T21:18:10.153Z,4.9
2023-01-10T21:21:10.209Z,4.9
2023-01-10T21:24:10.046Z,4.9
2023-01-10T21:27:10.222Z,4.9
2023-01-10T21:30:10.118Z,4.9
2023-01-10T21:33:10.125Z,4.9
2023-01-10T21:36:10.107Z,4.9
2023-01-10T21:39:10.176Z,5.1
2023-01-10T21:42:10.136Z,5
2023-01-10T21:45:10.266Z,5.1
2023-01-10T21:48:10.224Z,5.2
2023-01-10T21:51:10.139Z,5.2
2023-01-10T21:54:10.258Z,5.3
2023-01-10T21:57:10.058Z,5.3
2023-01-10T22:00:10.218Z,5.5
2023-01-10T22:03:10.283Z,5.5
2023-01-10T22:06:10.174Z,5.5
2023-01-10T22:09:10.115Z,5.6
2023-01-10T22:12:10.058Z,5.6
2023-01-10T22:15:10.156Z,5.7
2023-01-10T22:18:10.100Z,5.7
2023-01-10T22:21:10.309Z,5.6
2023-01-10T22:24:10.177Z,5.7
2023-01-10T22:27:10.175Z,5.6
2023-01-10T22:30:10.113Z,5.6
2023-01-10T22:33:10.088Z,5.5
2023-01-10T22:36:10.326Z,5.6
2023-01-10T22:39:10.131Z,5.5
2023-01-10T22:42:10.127Z,5.4
2023-01-10T22:45:10.177Z,5.4
2023-01-10T22:48:10.220Z,5.4
2023-01-10T22:51:10.217Z,5.4
2023-01-10T22:54:10.241Z,5.4
2023-01-10T22:57:10.068Z,5.4
2023-01-10T23:00:10.815Z,5.5
2023-01-10T23:03:09.756Z,5.5
2023-01-10T23:06:09.771Z,5.6
2023-01-10T23:09:09.739Z,5.6
2023-01-10T23:12:09.848Z,5.7
2023-01-10T23:15:09.695Z,5.7
2023-01-10T23:18:09.722Z,5.7
2023-01-10T23:21:09.764Z,5.8
2023-01-10T23:24:09.942Z,5.9
2023-01-10T23:27:09.810Z,5.9
2023-01-10T23:30:09.761Z,5.9
2023-01-10T23:33:09.910Z,5.9
2023-01-10T23:36:09.775Z,5.9
2023-01-10T23:39:09.808Z,5.9
2023-01-10T23:42:09.857Z,6
2023-01-10T23:45:09.772Z,6
2023-01-10T23:48:10.034Z,6
2023-01-10T23:51:09.747Z,6
2023-01-10T23:54:09.724Z,6
2023-01-10T23:57:09.737Z,6.1
